createdAt,value
2018-01-06T09:19:45.728Z,1002.22
2018-01-06T09:20:45.225Z,1002.21
2018-01-06T09:22:39.626Z,1002.23
2018-01-06T09:23:39.090Z,1002.29
2018-01-06T09:25:33.530Z,1002.29
2018-01-06T09:26:33.511Z,1002.27
2018-01-06T09:28:27.967Z,1002.25
2018-01-06T09:29:27.942Z,1002.26
2018-01-06T09:31:21.393Z,1002.33
2018-01-06T09:32:21.895Z,1002.32
2018-01-06T09:34:16.315Z,1002.38
2018-01-06T09:35:15.799Z,1002.45
2018-01-06T09:37:10.260Z,1002.49
2018-01-06T09:38:10.247Z,1002.50
2018-01-06T09:40:03.672Z,1002.53
2018-01-06T09:41:03.667Z,1002.58
2018-01-06T09:42:57.110Z,1002.53
2018-01-06T09:43:57.092Z,1002.56
2018-01-06T09:45:52.052Z,1002.51
2018-01-06T09:46:51.534Z,1002.47
2018-01-06T09:48:44.949Z,1002.51
2018-01-06T09:49:44.948Z,1002.55
2018-01-06T09:51:38.381Z,1002.55
2018-01-06T09:52:38.383Z,1002.56
2018-01-06T09:54:32.796Z,1002.66
2018-01-06T09:55:32.783Z,1002.68
2018-01-06T09:57:26.224Z,1002.70
2018-01-06T09:58:26.770Z,1002.70
2018-01-06T10:00:21.163Z,1002.70
2018-01-06T10:01:20.624Z,1002.69
2018-01-06T10:03:15.072Z,1002.67
2018-01-06T10:04:15.585Z,1002.68
2018-01-06T10:06:09.524Z,1002.68
2018-01-06T10:07:09.493Z,1002.67
2018-01-06T10:09:03.929Z,1002.68
2018-01-06T10:10:03.948Z,1002.68
2018-01-06T10:11:57.882Z,1002.74
2018-01-06T10:12:57.882Z,1002.77
2018-01-06T10:14:51.802Z,1002.76
2018-01-06T10:15:51.790Z,1002.77
2018-01-06T10:17:45.208Z,1002.76
2018-01-06T10:18:45.223Z,1002.78
2018-01-06T10:20:40.161Z,1002.79
2018-01-06T10:21:39.633Z,1002.78
2018-01-06T10:23:34.125Z,1002.80
2018-01-06T10:24:34.087Z,1002.78
2018-01-06T10:26:29.052Z,1002.83
2018-01-06T10:27:29.542Z,1002.81
2018-01-06T10:29:24.501Z,1002.89
2018-01-06T10:30:24.483Z,1002.87
2018-01-06T10:32:17.928Z,1002.91
2018-01-06T10:33:19.439Z,1002.94
2018-01-06T10:35:12.862Z,1002.94
2018-01-06T10:36:12.374Z,1002.98
2018-01-06T10:38:06.749Z,1002.91
2018-01-06T10:39:06.775Z,1002.95
2018-01-06T10:41:01.720Z,1002.93
2018-01-06T10:42:01.208Z,1002.95
2018-01-06T10:43:55.658Z,1002.98
2018-01-06T10:44:55.662Z,1002.98
2018-01-06T10:46:50.089Z,1002.99
2018-01-06T10:47:50.614Z,1002.97
2018-01-06T10:49:47.036Z,1002.98
2018-01-06T10:50:44.515Z,1002.95
2018-01-06T10:52:38.947Z,1002.95
2018-01-06T10:53:39.472Z,1002.95
2018-01-06T10:55:32.391Z,1002.99
2018-01-06T10:56:32.394Z,1003.02
2018-01-06T10:58:27.348Z,1003.08
2018-01-06T10:59:27.363Z,1003.07
2018-01-06T11:01:22.816Z,1003.08
2018-01-06T11:02:22.802Z,1003.08
2018-01-06T11:04:17.260Z,1003.04
2018-01-06T11:05:17.727Z,1003.06
2018-01-06T11:07:12.205Z,1003.08
2018-01-06T11:08:10.722Z,1003.07
2018-01-06T11:10:06.644Z,1003.05
2018-01-06T11:11:06.655Z,1003.09
2018-01-06T11:13:02.097Z,1003.12
2018-01-06T11:14:02.109Z,1003.16
2018-01-06T11:15:55.059Z,1003.16
2018-01-06T11:16:55.066Z,1003.18
2018-01-06T11:18:48.984Z,1003.19
2018-01-06T11:19:48.982Z,1003.20
2018-01-06T11:21:42.431Z,1003.20
2018-01-06T11:22:42.426Z,1003.19
2018-01-06T11:24:35.877Z,1003.19
2018-01-06T11:25:36.384Z,1003.16
2018-01-06T11:27:30.358Z,1003.20
2018-01-06T11:28:30.281Z,1003.21
2018-01-06T11:30:24.729Z,1003.18
2018-01-06T11:31:24.717Z,1003.14
2018-01-06T11:33:21.674Z,1003.07
2018-01-06T11:34:21.161Z,1003.08
2018-01-06T11:36:16.581Z,1003.09
2018-01-06T11:37:16.591Z,1003.09
2018-01-06T11:39:14.042Z,1003.10
2018-01-06T11:40:12.535Z,1003.12
2018-01-06T11:42:05.982Z,1003.14
2018-01-06T11:43:05.949Z,1003.14
2018-01-06T11:45:00.435Z,1003.12
2018-01-06T11:46:00.935Z,1003.12
2018-01-06T11:47:54.825Z,1003.13
2018-01-06T11:48:54.807Z,1003.14
2018-01-06T11:50:51.282Z,1003.18
2018-01-06T11:51:50.754Z,1003.15
2018-01-06T11:53:46.137Z,1003.17
2018-01-06T11:54:45.201Z,1003.12
2018-01-06T11:56:41.173Z,1003.13
2018-01-06T11:57:41.157Z,1003.18
2018-01-06T11:59:36.122Z,1003.23
2018-01-06T12:00:36.104Z,1003.26
2018-01-06T12:02:30.042Z,1003.29
2018-01-06T12:03:30.529Z,1003.32
2018-01-06T12:05:26.002Z,1003.34
2018-01-06T12:06:25.953Z,1003.33
2018-01-06T12:08:20.913Z,1003.38
2018-01-06T12:09:20.914Z,1003.39
2018-01-06T12:11:15.321Z,1003.41
2018-01-06T12:12:14.804Z,1003.41
2018-01-06T12:14:09.745Z,1003.46
2018-01-06T12:15:09.241Z,1003.47
2018-01-06T12:17:03.688Z,1003.50
2018-01-06T12:18:03.692Z,1003.47
2018-01-06T12:19:58.636Z,1003.44
2018-01-06T12:20:58.113Z,1003.46
2018-01-06T12:22:53.567Z,1003.40
2018-01-06T12:23:53.076Z,1003.40
2018-01-06T12:25:47.534Z,1003.30
2018-01-06T12:26:47.016Z,1003.33
2018-01-06T12:28:41.484Z,1003.30
2018-01-06T12:29:41.494Z,1003.33
2018-01-06T12:31:37.938Z,1003.33
2018-01-06T12:32:37.390Z,1003.33
2018-01-06T12:34:31.817Z,1003.34
2018-01-06T12:35:31.841Z,1003.35
2018-01-06T12:37:28.781Z,1003.34
2018-01-06T12:38:27.729Z,1003.36
2018-01-06T12:40:23.668Z,1003.34
2018-01-06T12:41:24.191Z,1003.35
2018-01-06T12:43:20.126Z,1003.36
2018-01-06T12:44:19.612Z,1003.36
2018-01-06T12:46:14.547Z,1003.40
2018-01-06T12:47:14.029Z,1003.47
2018-01-06T12:49:08.986Z,1003.41
2018-01-06T12:50:08.476Z,1003.44
2018-01-06T12:52:02.910Z,1003.47
2018-01-06T12:53:02.888Z,1003.47
2018-01-06T12:54:57.360Z,1003.48
2018-01-06T12:55:57.847Z,1003.48
2018-01-06T12:57:51.837Z,1003.50
2018-01-06T12:58:51.786Z,1003.55
2018-01-06T13:00:48.224Z,1003.49
2018-01-06T13:01:47.707Z,1003.49
2018-01-06T13:03:41.175Z,1003.49
2018-01-06T13:04:41.210Z,1003.48
2018-01-06T13:06:35.616Z,1003.51
2018-01-06T13:07:34.706Z,1003.52
2018-01-06T13:09:28.181Z,1003.55
2018-01-06T13:10:28.141Z,1003.55
2018-01-06T13:12:24.094Z,1003.54
2018-01-06T13:13:24.133Z,1003.51
2018-01-06T13:15:18.584Z,1003.57
2018-01-06T13:16:18.542Z,1003.60
2018-01-06T13:18:13.515Z,1003.61
2018-01-06T13:19:12.954Z,1003.64
2018-01-06T13:21:07.930Z,1003.63
2018-01-06T13:22:07.410Z,1003.65
2018-01-06T13:24:03.339Z,1003.63
2018-01-06T13:25:03.351Z,1003.67
2018-01-06T13:26:59.312Z,1003.69
2018-01-06T13:27:59.264Z,1003.71
2018-01-06T13:29:53.737Z,1003.74
2018-01-06T13:30:53.703Z,1003.75
2018-01-06T13:32:50.161Z,1003.72
2018-01-06T13:33:48.144Z,1003.73
2018-01-06T13:35:44.107Z,1003.76
2018-01-06T13:36:44.090Z,1003.77
2018-01-06T13:38:38.564Z,1003.77
2018-01-06T13:39:38.530Z,1003.79
2018-01-06T13:41:33.006Z,1003.84
2018-01-06T13:42:32.951Z,1003.87
2018-01-06T13:44:27.428Z,1003.93
2018-01-06T13:45:27.913Z,1003.97
2018-01-06T13:47:23.318Z,1003.99
2018-01-06T13:48:23.314Z,1004.02
2018-01-06T13:50:18.769Z,1004.08
2018-01-06T13:51:17.761Z,1004.09
2018-01-06T13:53:12.706Z,1004.12
2018-01-06T13:54:12.186Z,1004.11
2018-01-06T13:56:06.607Z,1004.13
2018-01-06T13:57:08.133Z,1004.13
2018-01-06T13:59:02.084Z,1004.12
2018-01-06T14:00:01.576Z,1004.12
2018-01-06T14:01:55.493Z,1004.15
2018-01-06T14:02:55.524Z,1004.18
2018-01-06T14:04:51.476Z,1004.21
2018-01-06T14:05:51.462Z,1004.21
2018-01-06T14:07:46.407Z,1004.25
2018-01-06T14:08:46.404Z,1004.28
2018-01-06T14:10:40.306Z,1004.24
2018-01-06T14:11:40.302Z,1004.24
2018-01-06T14:13:34.764Z,1004.24
2018-01-06T14:14:34.747Z,1004.24
2018-01-06T14:16:29.700Z,1004.23
2018-01-06T14:17:29.181Z,1004.26
2018-01-06T14:19:24.636Z,1004.27
2018-01-06T14:20:23.640Z,1004.25
2018-01-06T14:22:19.607Z,1004.25
2018-01-06T14:23:19.592Z,1004.26
2018-01-06T14:25:14.532Z,1004.35
2018-01-06T14:26:13.017Z,1004.36
2018-01-06T14:28:07.957Z,1004.41
2018-01-06T14:29:07.416Z,1004.41
2018-01-06T14:31:01.883Z,1004.39
2018-01-06T14:32:02.369Z,1004.39
2018-01-06T14:33:57.805Z,1004.43
2018-01-06T14:34:57.816Z,1004.45
2018-01-06T14:36:52.263Z,1004.49
2018-01-06T14:37:52.272Z,1004.42
2018-01-06T14:39:46.743Z,1004.44
2018-01-06T14:40:46.701Z,1004.51
2018-01-06T14:42:42.654Z,1004.52
2018-01-06T14:43:41.665Z,1004.54
2018-01-06T14:45:36.092Z,1004.47
2018-01-06T14:46:36.106Z,1004.44
2018-01-06T14:48:31.513Z,1004.44
2018-01-06T14:49:32.530Z,1004.46
2018-01-06T14:51:26.009Z,1004.50
2018-01-06T14:52:25.975Z,1004.48
2018-01-06T14:54:20.935Z,1004.54
2018-01-06T14:55:20.924Z,1004.55
2018-01-06T14:57:14.376Z,1004.52
2018-01-06T14:58:13.885Z,1004.48
2018-01-06T15:00:07.834Z,1004.54
2018-01-06T15:01:07.831Z,1004.50
2018-01-06T15:03:01.739Z,1004.52
2018-01-06T15:04:01.737Z,1004.46
2018-01-06T15:05:56.200Z,1004.46
2018-01-06T15:06:56.182Z,1004.44
2018-01-06T15:08:51.630Z,1004.43
2018-01-06T15:09:51.133Z,1004.47
2018-01-06T15:11:57.113Z,1004.50
2018-01-06T15:12:58.036Z,1004.55
2018-01-06T15:14:52.217Z,1004.63
2018-01-06T15:15:54.151Z,1004.63
2018-01-06T15:17:45.678Z,1004.72
2018-01-06T15:18:45.623Z,1004.74
2018-01-06T15:20:40.208Z,1004.81
2018-01-06T15:21:40.197Z,1004.79
2018-01-06T15:23:35.168Z,1004.81
2018-01-06T15:24:35.153Z,1004.85
2018-01-06T15:26:31.101Z,1004.82
2018-01-06T15:27:30.579Z,1004.75
2018-01-06T15:29:24.997Z,1004.79
2018-01-06T15:30:24.995Z,1004.79
2018-01-06T15:32:19.455Z,1004.82
2018-01-06T15:33:19.947Z,1004.85
2018-01-06T15:35:15.384Z,1004.86
2018-01-06T15:36:14.356Z,1004.85
2018-01-06T15:38:09.313Z,1004.83
2018-01-06T15:39:08.772Z,1004.82
2018-01-06T15:41:05.224Z,1004.85
2018-01-06T15:42:05.222Z,1004.85
2018-01-06T15:44:00.172Z,1004.88
2018-01-06T15:44:59.159Z,1004.86
2018-01-06T15:46:54.113Z,1004.84
2018-01-06T15:47:53.595Z,1004.88
2018-01-06T15:49:49.058Z,1004.87
2018-01-06T15:50:48.026Z,1004.83
2018-01-06T15:52:42.968Z,1004.83
2018-01-06T15:53:42.457Z,1004.83
2018-01-06T15:55:37.427Z,1004.87
2018-01-06T15:56:36.908Z,1004.84
2018-01-06T15:58:33.851Z,1004.83
2018-01-06T15:59:32.827Z,1004.82
2018-01-06T16:01:26.293Z,1004.83
2018-01-06T16:02:26.788Z,1004.90
2018-01-06T16:04:20.714Z,1004.99
2018-01-06T16:05:20.708Z,1005.06
2018-01-06T16:07:15.668Z,1005.03
2018-01-06T16:08:16.153Z,1005.07
2018-01-06T16:10:10.612Z,1005.07
2018-01-06T16:11:09.778Z,1005.07
2018-01-06T16:13:04.734Z,1005.10
2018-01-06T16:14:04.220Z,1005.11
2018-01-06T16:15:59.228Z,1005.13
2018-01-06T16:16:58.649Z,1005.17
2018-01-06T16:18:53.598Z,1005.21
2018-01-06T16:19:54.046Z,1005.20
2018-01-06T16:21:47.472Z,1005.28
2018-01-06T16:22:46.527Z,1005.33
2018-01-06T16:24:40.985Z,1005.29
2018-01-06T16:25:40.977Z,1005.35
2018-01-06T16:27:34.436Z,1005.36
2018-01-06T16:28:34.400Z,1005.42
2018-01-06T16:30:30.355Z,1005.41
2018-01-06T16:31:30.324Z,1005.46
2018-01-06T16:33:23.739Z,1005.45
2018-01-06T16:34:23.776Z,1005.43
2018-01-06T16:36:17.265Z,1005.47
2018-01-06T16:37:17.194Z,1005.49
2018-01-06T16:39:12.634Z,1005.51
2018-01-06T16:40:11.687Z,1005.55
2018-01-06T16:42:06.120Z,1005.55
2018-01-06T16:43:06.630Z,1005.59
2018-01-06T16:45:00.573Z,1005.60
2018-01-06T16:46:01.063Z,1005.63
2018-01-06T16:47:54.984Z,1005.63
2018-01-06T16:48:55.496Z,1005.69
2018-01-06T16:50:48.408Z,1005.68
2018-01-06T16:51:48.419Z,1005.69
2018-01-06T16:53:42.870Z,1005.67
2018-01-06T16:54:42.882Z,1005.66
2018-01-06T16:56:37.329Z,1005.71
2018-01-06T16:57:37.303Z,1005.74
2018-01-06T16:59:33.762Z,1005.78
2018-01-06T17:00:32.753Z,1005.77
2018-01-06T17:02:30.216Z,1005.76
2018-01-06T17:03:26.191Z,1005.81
2018-01-06T17:05:20.611Z,1005.84
2018-01-06T17:06:20.628Z,1005.85
2018-01-06T17:08:15.073Z,1005.90
2018-01-06T17:09:15.035Z,1005.92
2018-01-06T17:11:09.464Z,1005.98
2018-01-06T17:12:10.435Z,1005.98
2018-01-06T17:14:02.947Z,1006.04
2018-01-06T17:15:02.924Z,1006.05
2018-01-06T17:16:56.368Z,1006.01
2018-01-06T17:17:56.867Z,1006.00
2018-01-06T17:19:52.818Z,1006.03
2018-01-06T17:20:52.303Z,1006.01
2018-01-06T17:22:46.269Z,1006.01
2018-01-06T17:23:45.741Z,1005.99
2018-01-06T17:25:40.196Z,1006.00
2018-01-06T17:26:40.717Z,1006.01
2018-01-06T17:28:33.621Z,1006.00
2018-01-06T17:29:33.622Z,1005.98
2018-01-06T17:31:28.571Z,1006.00
2018-01-06T17:32:28.065Z,1006.00
2018-01-06T17:34:22.531Z,1006.07
2018-01-06T17:35:22.494Z,1006.06
2018-01-06T17:37:15.966Z,1006.13
2018-01-06T17:38:15.920Z,1006.11
2018-01-06T17:40:09.375Z,1006.14
2018-01-06T17:41:09.396Z,1006.16
2018-01-06T17:43:03.787Z,1006.20
2018-01-06T17:44:03.794Z,1006.25
2018-01-06T17:45:58.225Z,1006.28
2018-01-06T17:46:58.211Z,1006.33
2018-01-06T17:48:51.672Z,1006.42
2018-01-06T17:49:51.649Z,1006.45
2018-01-06T17:51:45.097Z,1006.51
2018-01-06T17:52:45.591Z,1006.57
2018-01-06T17:54:39.536Z,1006.58
2018-01-06T17:55:38.526Z,1006.59
2018-01-06T17:57:32.457Z,1006.63
2018-01-06T17:58:32.475Z,1006.63
2018-01-06T18:00:26.394Z,1006.64
2018-01-06T18:01:25.358Z,1006.69
2018-01-06T18:03:18.796Z,1006.71
2018-01-06T18:04:18.781Z,1006.74
2018-01-06T18:06:12.260Z,1006.81
2018-01-06T18:07:13.237Z,1006.85
2018-01-06T18:09:06.210Z,1006.83
2018-01-06T18:10:06.186Z,1006.82
2018-01-06T18:11:59.131Z,1006.80
2018-01-06T18:12:59.631Z,1006.88
2018-01-06T18:14:53.547Z,1006.96
2018-01-06T18:15:54.080Z,1006.95
2018-01-06T18:17:47.026Z,1006.97
2018-01-06T18:18:46.992Z,1006.97
2018-01-06T18:20:41.413Z,1007.02
2018-01-06T18:21:41.413Z,1007.04
2018-01-06T18:23:36.374Z,1007.02
2018-01-06T18:24:35.870Z,1007.01
2018-01-06T18:26:29.813Z,1007.05
2018-01-06T18:27:29.292Z,1007.09
2018-01-06T18:29:24.737Z,1007.09
2018-01-06T18:30:23.729Z,1007.12
2018-01-06T18:32:18.149Z,1007.13
2018-01-06T18:33:18.695Z,1007.16
2018-01-06T18:35:11.614Z,1007.20
2018-01-06T18:36:12.120Z,1007.25
2018-01-06T18:38:05.016Z,1007.28
2018-01-06T18:39:05.025Z,1007.30
2018-01-06T18:40:58.469Z,1007.36
2018-01-06T18:41:58.436Z,1007.39
2018-01-06T18:43:51.905Z,1007.43
2018-01-06T18:44:51.871Z,1007.42
2018-01-06T18:46:46.300Z,1007.44
2018-01-06T18:47:46.308Z,1007.48
2018-01-06T18:49:40.781Z,1007.52
2018-01-06T18:50:41.263Z,1007.50
2018-01-06T18:52:34.216Z,1007.56
2018-01-06T18:53:34.190Z,1007.58
2018-01-06T18:55:28.129Z,1007.58
2018-01-06T18:56:27.620Z,1007.63
2018-01-06T18:58:23.092Z,1007.60
2018-01-06T18:59:22.592Z,1007.62
2018-01-06T19:01:15.534Z,1007.66
2018-01-06T19:02:15.507Z,1007.65
2018-01-06T19:04:09.968Z,1007.70
2018-01-06T19:05:09.952Z,1007.64
2018-01-06T19:07:03.407Z,1007.74
2018-01-06T19:08:03.372Z,1007.73
2018-01-06T19:09:58.322Z,1007.72
2018-01-06T19:10:57.790Z,1007.76
2018-01-06T19:12:51.783Z,1007.75
2018-01-06T19:13:51.231Z,1007.79
2018-01-06T19:15:45.695Z,1007.80
2018-01-06T19:16:44.686Z,1007.77
2018-01-06T19:18:40.133Z,1007.85
2018-01-06T19:19:39.623Z,1007.88
2018-01-06T19:21:34.571Z,1007.92
2018-01-06T19:22:33.569Z,1007.94
2018-01-06T19:24:28.519Z,1007.91
2018-01-06T19:25:28.527Z,1007.92
2018-01-06T19:27:21.466Z,1007.94
2018-01-06T19:28:21.949Z,1007.96
2018-01-06T19:30:15.864Z,1007.97
2018-01-06T19:31:15.881Z,1008.00
2018-01-06T19:33:10.815Z,1008.03
2018-01-06T19:34:09.300Z,1008.03
2018-01-06T19:36:03.761Z,1008.05
2018-01-06T19:37:02.759Z,1008.03
2018-01-06T19:38:57.721Z,1008.04
2018-01-06T19:39:57.701Z,1008.07
2018-01-06T19:41:52.653Z,1008.10
2018-01-06T19:42:51.622Z,1008.08
2018-01-06T19:44:45.081Z,1008.09
2018-01-06T19:45:46.073Z,1008.11
2018-01-06T19:47:39.492Z,1008.16
2018-01-06T19:48:39.504Z,1008.17
2018-01-06T19:50:35.456Z,1008.20
2018-01-06T19:51:35.466Z,1008.23
2018-01-06T19:53:30.440Z,1008.26
2018-01-06T19:54:30.400Z,1008.29
2018-01-06T19:56:24.348Z,1008.32
2018-01-06T19:57:24.326Z,1008.33
2018-01-06T19:59:19.267Z,1008.40
2018-01-06T20:00:18.801Z,1008.39
2018-01-06T20:02:12.704Z,1008.41
2018-01-06T20:03:12.194Z,1008.41
2018-01-06T20:05:07.174Z,1008.44
2018-01-06T20:06:06.625Z,1008.46
2018-01-06T20:08:02.576Z,1008.50
2018-01-06T20:09:01.066Z,1008.53
2018-01-06T20:10:56.987Z,1008.53
2018-01-06T20:11:55.477Z,1008.58
2018-01-06T20:13:51.934Z,1008.54
2018-01-06T20:14:50.025Z,1008.51
2018-01-06T20:16:44.481Z,1008.55
2018-01-06T20:17:44.998Z,1008.55
2018-01-06T20:19:38.917Z,1008.57
2018-01-06T20:20:38.886Z,1008.59
2018-01-06T20:22:33.845Z,1008.61
2018-01-06T20:23:33.337Z,1008.64
2018-01-06T20:25:27.772Z,1008.70
2018-01-06T20:26:27.840Z,1008.72
2018-01-06T20:28:22.204Z,1008.75
2018-01-06T20:29:22.193Z,1008.79
2018-01-06T20:31:16.164Z,1008.80
2018-01-06T20:49:58.925Z,1009.11
2018-01-06T20:50:43.596Z,1009.12
2018-01-06T20:52:38.061Z,1009.15
2018-01-06T20:53:38.066Z,1009.12
2018-01-06T20:55:32.507Z,1009.14
2018-01-06T20:56:32.493Z,1009.17
2018-01-06T20:58:26.905Z,1009.19
2018-01-06T20:59:27.447Z,1009.23
2018-01-06T21:01:20.327Z,1009.24
2018-01-06T21:02:20.340Z,1009.27
2018-01-06T21:04:14.788Z,1009.27
2018-01-06T21:05:14.757Z,1009.27
2018-01-06T21:07:09.227Z,1009.27
2018-01-06T21:08:09.710Z,1009.32
2018-01-06T21:10:05.166Z,1009.34
2018-01-06T21:11:05.138Z,1009.38
2018-01-06T21:12:58.568Z,1009.41
2018-01-06T21:13:58.573Z,1009.39
2018-01-06T21:15:54.024Z,1009.42
2018-01-06T21:16:53.012Z,1009.40
2018-01-06T21:18:47.501Z,1009.45
2018-01-06T22:51:55.006Z,1010.54
2018-01-06T22:54:53.976Z,1010.51
2018-01-06T22:55:53.552Z,1010.53
2018-01-06T22:57:49.377Z,1010.58
2018-01-06T22:58:48.532Z,1010.60
2018-01-06T23:00:42.488Z,1010.64
2018-01-06T23:01:41.961Z,1010.62
2018-01-06T23:03:37.903Z,1010.63
2018-01-06T23:04:37.902Z,1010.68
2018-01-06T23:06:33.812Z,1010.72
2018-01-06T23:07:33.923Z,1010.79
2018-01-06T23:09:29.790Z,1010.78
2018-01-06T23:10:29.756Z,1010.78
2018-01-06T23:12:24.702Z,1010.78
2018-01-06T23:13:26.099Z,1010.80
2018-01-06T23:15:43.721Z,1010.80
2018-01-06T23:18:16.001Z,1010.85
2018-01-06T23:19:15.072Z,1010.84
2018-01-06T23:24:48.033Z,1010.93
2018-01-06T23:25:47.919Z,1010.98
2018-01-06T23:28:07.926Z,1010.98
2018-01-06T23:29:10.334Z,1010.96
2018-01-06T23:31:00.673Z,1010.94
2018-01-06T23:32:01.185Z,1010.95
2018-01-06T23:33:54.594Z,1011.00
2018-01-06T23:34:54.092Z,1010.97
2018-01-06T23:36:47.548Z,1011.00
2018-01-06T23:37:47.505Z,1011.00
2018-01-06T23:39:42.493Z,1011.02
2018-01-06T23:40:42.459Z,1011.03
2018-01-06T23:42:38.914Z,1011.00
2018-01-06T23:43:38.111Z,1011.04
2018-01-06T23:45:33.051Z,1010.97
2018-01-06T23:46:33.753Z,1011.00
2018-01-06T23:48:28.402Z,1010.97
2018-01-06T23:49:27.349Z,1011.05
2018-01-06T23:51:23.229Z,1011.05
2018-01-06T23:52:21.359Z,1011.10
2018-01-06T23:54:15.838Z,1011.12
2018-01-06T23:55:15.798Z,1011.15
2018-01-06T23:57:10.233Z,1011.13
2018-01-06T23:58:10.230Z,1011.17
